Terminal Aerodrome Forecast
Issued by NWS

Home | Current Version | Previous Version | Text Only | Print | Product List | Glossary On
Versions: 1 2 3 4 5 6 7 8 9 10 11 12 13 14 15 16 17 18 19
265
FTUS43 KAPX 172322
TAFMBL
TAF
KMBL 172322Z 1800/1824 23016G25KT P6SM SCT200 WS020/26045KT
     FM181000 26014G23KT P6SM SCT200
     FM181200 26010G20KT P6SM VCSH BKN020
     FM181600 24009KT P6SM VCSH BKN030
     FM181800 23009KT P6SM BKN040=

USA.gov is the U.S. government's official web portal to all federal, state and local government web resources and services.